Crystal Serenity — C6SY3 — position and weather

sailwx.info

Track history (hours):
 
Tides and Currents Weather Stations Pressure Air Temp Water Temp Dewpoint Dewpoint Depression Visibility Wind Speed Wind Dir Waves Ship Positions

Crystal Serenity

Operator: Crystal Cruises

Last reported at 2019-May-22 16:29 UTC. Time now 2019-May-22 16:58 UTC.
Position N 41°22' E 002°11'.

Length 250 m; draft 7.5 m.

Type: Passenger vessel. MMSI: 311536000.

Date/timePositionNaut miles runAvg speedWind from/ knotsBaromVisibWave heightAir tempDewpointWater temp
2019-May-22 16:29N 41°22' E 002°11'0 0.0
2019-May-22 15:56N 41°22' E 002°11'0 0.0
2019-May-22 15:29N 41°22' E 002°11'0 0.0
2019-May-22 14:59N 41°22' E 002°11'0 0.0
2019-May-22 14:29N 41°22' E 002°11'0 0.0
2019-May-22 13:59N 41°22' E 002°11'0 0.0
2019-May-22 13:29N 41°22' E 002°11'0 0.0
2019-May-22 12:56N 41°22' E 002°11'0 0.0
2019-May-22 12:29N 41°22' E 002°11'0 0.0
2019-May-22 11:59N 41°22' E 002°11'0 0.0
2019-May-22 11:29N 41°22' E 002°11'0 0.0
2019-May-22 10:59N 41°22' E 002°11'0 0.0
2019-May-22 10:29N 41°22' E 002°11'0 0.0
2019-May-22 09:56N 41°22' E 002°11'0 0.0
2019-May-22 09:29N 41°22' E 002°11'0 0.0
2019-May-22 08:59N 41°22' E 002°11'0 0.0
2019-May-22 08:29N 41°22' E 002°11'0 0.0
2019-May-22 07:59N 41°22' E 002°11'0 0.0
2019-May-22 07:29N 41°22' E 002°11'0 0.0
2019-May-22 06:59N 41°22' E 002°11'0 0.0
2019-May-22 06:29N 41°22' E 002°11'0 0.0
2019-May-22 05:59N 41°22' E 002°11'0 0.6
2019-May-22 05:30N 41°22' E 002°11'3 6.7
2019-May-22 05:00N 41°18' E 002°11'5 9.5
2019-May-22 04:30N 41°16' E 002°16'713.2
2019-May-22 04:00N 41°17' E 002°25'713.2
2019-May-22 03:30N 41°17' E 002°34'815.1
2019-May-22 02:59N 41°21' E 002°43'715.6
2019-May-22 02:30N 41°25' E 002°52'815.2
2019-May-22 02:00N 41°29' E 002°60'11713.6
2019-May-22 02:00N 41°18' E 003°00'2026.3 270 / 141016.310.8 17.0 17.0
2019-May-22 01:13N 41°36' E 003°13'315.3
2019-May-22 01:00N 41°37' E 003°17'3216.1
2019-May-21 23:00N 42°00' E 003°48'3316.4 280 / 301012.010.8 17.0 18.0
2019-May-21 21:00N 42°24' E 004°18'6020.3 280 / 351012.0 5.4 17.0 18.0
2019-May-21 18:02N 43°11' E 005°08'118.0
2019-May-21 18:00N 43°12' E 005°08'916.5
2019-May-21 17:28N 43°19' E 005°15'4 0.3
2019-May-21 05:44N 43°21' E 005°20'0 1.3
2019-May-21 05:30N 43°21' E 005°20'4 7.5
2019-May-21 04:57N 43°19' E 005°14'713.3
2019-May-21 04:25N 43°13' E 005°10'107253.5
2019-May-21 04:00N 45°00' E 005°18'14124.4 290 / 301015.310.8 15.0 16.0
2019-May-20 22:14N 43°00' E 007°01'614.2
2019-May-20 21:48N 43°06' E 007°04'414.5
2019-May-20 21:30N 43°10' E 007°04'714.6
2019-May-20 21:00N 43°17' E 007°03'6364.8
2019-May-20 21:00N 43°12' E 007°00'1326.4 080 / 101009.010.8 15.0 16.0
2019-May-20 20:30N 43°25' E 007°02'713.4
2019-May-20 20:00N 43°31' E 007°01'0 0.7
2019-May-20 19:28N 43°32' E 007°01'2 4.1
2019-May-20 19:00N 43°30' E 007°00'264.1 020 / 101008.010.8 16.0 17.0
2019-May-20 18:58N 43°32' E 007°01'0 0.1
2019-May-20 18:28N 43°32' E 007°01'0 0.0
2019-May-20 17:58N 43°32' E 007°01'0 0.0
2019-May-20 17:28N 43°32' E 007°01'0 0.0
2019-May-20 16:58N 43°32' E 007°01'0 0.0
2019-May-20 16:28N 43°32' E 007°01'0 0.0
2019-May-20 15:58N 43°32' E 007°01'0 0.0
2019-May-20 15:28N 43°32' E 007°01'0 0.0
2019-May-20 14:58N 43°32' E 007°01'0 0.0
2019-May-20 14:28N 43°32' E 007°01'0 0.0
2019-May-20 13:58N 43°32' E 007°01'0 0.0
2019-May-20 13:28N 43°32' E 007°01'0 0.0
2019-May-20 12:58N 43°32' E 007°01'0 0.0
2019-May-20 12:28N 43°32' E 007°01'0 0.0
2019-May-20 11:58N 43°32' E 007°01'0 0.0
2019-May-20 11:28N 43°32' E 007°01'0 0.0
2019-May-20 10:58N 43°32' E 007°01'0 0.0
2019-May-20 10:28N 43°32' E 007°01'0 0.0
2019-May-20 09:58N 43°32' E 007°01'0 0.0
2019-May-20 09:28N 43°32' E 007°01'0 0.0
2019-May-20 08:58N 43°32' E 007°01'0 0.0
2019-May-20 08:28N 43°32' E 007°01'0 0.0
2019-May-20 07:58N 43°32' E 007°01'0 0.0
2019-May-20 07:28N 43°32' E 007°01'0 0.1
2019-May-20 06:58N 43°32' E 007°01'0 0.0
2019-May-20 06:28N 43°32' E 007°01'0 0.0
2019-May-20 05:58N 43°32' E 007°01'1 2.0
2019-May-20 05:31N 43°31' E 007°01'3 5.2
2019-May-20 05:00N 43°28' E 007°02'510.2
2019-May-20 04:30N 43°24' E 007°06'611.5
2019-May-20 04:00N 43°19' E 007°10'613.0
2019-May-20 03:31N 43°14' E 007°15'714.7
2019-May-20 03:01N 43°08' E 007°21'714.9
2019-May-20 02:31N 43°02' E 007°26'815.0
2019-May-20 02:00N 42°55' E 007°32'2122.5
2019-May-20 02:00N 42°54' E 007°30'715.4 220 / 231012.210.8 14.0 17.0
2019-May-20 01:30N 42°49' E 007°37'914.6
2019-May-20 00:55N 42°42' E 007°44'84 9.4
2019-May-19 16:00N 41°36' E 008°54'18 2.3 270 / 201008.0 16.0 17.0
2019-May-19 08:00N 41°18' E 008°54'6813.6 240 / 301006.010.8 16.0 17.0
2019-May-19 03:00N 41°12' E 010°24'4723.4 280 / 301007.010.8 14.0 17.0
2019-May-19 01:00N 41°00' E 011°24'6015.0 290 / 221008.010.8 15.0 15.0
2019-May-18 21:00N 40°48' E 012°42'60 3.4 240 / 151008.010.8 16.0 17.0
2019-May-18 03:00N 40°36' E 014°00'2612.9 160 / 301011.210.8 17.0 17.0
2019-May-18 01:00N 40°48' E 013°30'5814.5 140 / 301011.2 17.0 17.0
2019-May-17 21:00N 41°18' E 012°24'3316.4 130 / 251008.010.8 15.0 16.0
2019-May-17 19:00N 41°42' E 011°54'29 1.6 150 / 201008.010.8 16.0 18.0
2019-May-17 01:00N 41°54' E 011°18'4915.2 1011.010.8 14.0 16.0
2019-May-16 21:44N 41°38' E 010°15'417.9
2019-May-16 21:30N 41°37' E 010°10'4317.3
2019-May-16 19:00N 41°18' E 009°18'65 4.0 280 / 201012.010.8 15.0 16.0
2019-May-16 03:00N 42°00' E 008°12'3014.9 020 / 161013.010.8 13.0 15.0
2019-May-16 01:00N 42°24' E 007°48'2817.2 010 / 161013.010.8 13.0 15.0
2019-May-15 23:22N 42°45' E 007°24'514.0
2019-May-15 23:00N 42°49' E 007°19'714.0
2019-May-15 22:30N 42°55' E 007°13'714.0
2019-May-15 22:01N 42°60' E 007°07'713.9
2019-May-15 21:30N 43°05' E 007°00'714.0
2019-May-15 21:00N 43°10' E 006°54'4249.3
2019-May-15 21:00N 43°06' E 006°54'1122.0 240 / 101015.010.8 14.0 15.0
2019-May-15 20:30N 43°15' E 006°47'7 1.8
2019-May-15 16:41N 43°17' E 006°38'5 0.5
2019-May-15 07:00N 43°12' E 006°36'519.6 120 / 251014.010.8 11.0 12.0
2019-May-15 06:45N 43°17' E 006°37'0 0.0
2019-May-15 06:30N 43°17' E 006°37'0 0.0
2019-May-15 05:12N 43°17' E 006°37'5 6.6
2019-May-15 04:29N 43°18' E 006°43'612.8
2019-May-15 04:00N 43°15' E 006°51'4280.8
2019-May-15 04:00N 43°12' E 006°48'714.0 090 / 361014.010.8 14.0 16.0
2019-May-15 03:30N 43°12' E 006°57'611.5
2019-May-15 03:00N 43°11' E 007°05'611.2
2019-May-15 02:30N 43°10' E 007°13'5 9.6
2019-May-15 02:00N 43°11' E 007°19'510.5
2019-May-15 01:30N 43°14' E 007°25'510.6
2019-May-15 01:00N 43°18' E 007°30'7495.3
2019-May-15 01:00N 43°12' E 007°24'1325.9 090 / 301014.010.8 14.0 16.0
2019-May-15 00:30N 43°21' E 007°36'510.0
2019-May-15 00:00N 43°25' E 007°40'611.3
2019-May-14 23:30N 43°31' E 007°40'611.8
2019-May-14 23:00N 43°36' E 007°36'019.1
2019-May-14 23:00N 43°36' E 007°36'611.4 110 / 251016.010.8 16.0 17.0
2019-May-14 22:30N 43°41' E 007°33'510.4
2019-May-14 22:00N 43°44' E 007°27'0 0.3
2019-May-14 21:29N 43°44' E 007°26'0 0.0
2019-May-14 20:59N 43°44' E 007°26'0 0.0
2019-May-14 20:29N 43°44' E 007°26'0 0.0
2019-May-14 19:59N 43°44' E 007°26'0 0.0
2019-May-14 19:29N 43°44' E 007°26'0 0.0
2019-May-14 18:59N 43°44' E 007°26'0 0.0
2019-May-14 18:29N 43°44' E 007°26'0 0.0
2019-May-14 17:59N 43°44' E 007°26'0 0.0
2019-May-14 17:29N 43°44' E 007°26'0 0.0
2019-May-14 16:59N 43°44' E 007°26'0 0.0
2019-May-14 16:29N 43°44' E 007°26'0 0.0
2019-May-14 15:59N 43°44' E 007°26'0 0.0
2019-May-14 15:29N 43°44' E 007°26'0 0.0
2019-May-14 14:59N 43°44' E 007°26'0 0.0
2019-May-14 14:29N 43°44' E 007°26'0 0.0
2019-May-14 13:59N 43°44' E 007°26'0 0.1
2019-May-14 13:29N 43°44' E 007°26'0 0.1
2019-May-14 12:59N 43°44' E 007°26'0 0.0
2019-May-14 12:29N 43°44' E 007°26'0 0.0
2019-May-14 11:59N 43°44' E 007°26'0 0.0
2019-May-14 11:29N 43°44' E 007°26'0 0.1
2019-May-14 10:59N 43°44' E 007°26'0 0.0
2019-May-14 10:29N 43°44' E 007°26'0 0.0
2019-May-14 09:59N 43°44' E 007°26'0 0.0
2019-May-14 09:29N 43°44' E 007°26'0 0.1
2019-May-14 08:56N 43°44' E 007°26'0 0.0
2019-May-14 08:29N 43°44' E 007°26'0 0.1
2019-May-14 07:59N 43°44' E 007°26'0 0.0
2019-May-14 07:29N 43°44' E 007°26'0 0.0
2019-May-14 06:59N 43°44' E 007°26'0 0.0
2019-May-14 06:29N 43°44' E 007°26'0 0.0
2019-May-14 05:59N 43°44' E 007°26'0 0.0
2019-May-14 05:29N 43°44' E 007°26'1 1.5
2019-May-14 05:00N 43°44' E 007°27'4 7.8
2019-May-14 04:30N 43°43' E 007°33'713.1
2019-May-14 04:01N 43°42' E 007°41'510.8
2019-May-14 03:30N 43°40' E 007°49'611.4
2019-May-14 03:00N 43°39' E 007°56'6439.0
2019-May-14 03:00N 43°36' E 007°48'1123.5 290 / 91018.010.8 17.0 15.0
2019-May-14 02:30N 43°37' E 008°04'611.2
2019-May-14 02:00N 43°37' E 008°11'611.3
2019-May-14 01:30N 43°38' E 008°19'510.8
2019-May-14 01:01N 43°39' E 008°26'611.3
2019-May-14 00:30N 43°44' E 008°31'611.1
2019-May-14 00:00N 43°48' E 008°36'611.1
2019-May-13 23:30N 43°52' E 008°41'611.0
2019-May-13 23:00N 43°56' E 008°46'510.9
2019-May-13 22:30N 44°00' E 008°51'510.9
2019-May-13 22:00N 44°05' E 008°56'510.9
2019-May-13 21:30N 44°08' E 009°03'510.8
2019-May-13 21:00N 44°11' E 009°09'5345.8
2019-May-13 21:00N 44°06' E 009°06'1020.7 070 / 201019.010.8 18.0 19.0
2019-May-13 20:30N 44°14' E 009°14'4 7.1
2019-May-13 20:00N 44°18' E 009°14'1 1.9
2019-May-13 19:29N 44°19' E 009°14'0 0.0
2019-May-13 18:59N 44°19' E 009°14'0 0.0
2019-May-13 18:29N 44°19' E 009°14'0 0.1
2019-May-13 17:53N 44°19' E 009°14'0 0.1
2019-May-13 17:29N 44°19' E 009°14'0 0.0
2019-May-13 16:56N 44°19' E 009°14'0 0.0
2019-May-13 16:29N 44°19' E 009°14'0 0.0
2019-May-13 15:59N 44°19' E 009°14'0 0.1
2019-May-13 15:29N 44°19' E 009°14'0 0.1
2019-May-13 14:53N 44°19' E 009°14'0 0.2
2019-May-13 14:26N 44°19' E 009°14'0 0.1
2019-May-13 13:56N 44°19' E 009°14'0 0.2
2019-May-13 13:29N 44°19' E 009°14'0 0.0
2019-May-13 12:53N 44°19' E 009°14'0 0.2
2019-May-13 12:23N 44°19' E 009°14'0 0.1
2019-May-13 11:59N 44°19' E 009°14'0 0.0
2019-May-13 11:29N 44°19' E 009°14'0 0.0
2019-May-13 10:59N 44°19' E 009°14'0 0.0
2019-May-13 10:29N 44°19' E 009°14'0 0.0
2019-May-13 09:50N 44°19' E 009°14'0 0.1
2019-May-13 09:26N 44°19' E 009°14'0 0.1
2019-May-13 08:59N 44°19' E 009°14'0 0.0
2019-May-13 08:29N 44°19' E 009°14'0 0.1
2019-May-13 07:53N 44°19' E 009°14'0 0.0
2019-May-13 07:05N 44°19' E 009°14'0 0.1
2019-May-13 06:50N 44°19' E 009°14'0 0.0
2019-May-13 06:26N 44°19' E 009°14'0 0.0
2019-May-13 05:44N 44°19' E 009°14'0 0.1
2019-May-13 05:26N 44°19' E 009°14'3 3.9
2019-May-13 04:40N 44°17' E 009°17'1 9.3
2019-May-13 04:30N 44°15' E 009°17'5 9.7
2019-May-13 04:00N 44°10' E 009°15'510.2
2019-May-13 03:30N 44°06' E 009°13'510.1
2019-May-13 03:00N 44°01' E 009°10'2101.9
2019-May-13 03:00N 44°00' E 009°12'510.8 030 / 271015.010.8 15.0 15.0
2019-May-13 02:30N 43°57' E 009°07'510.9
2019-May-13 02:00N 43°52' E 009°03'4262.8
2019-May-13 02:00N 43°48' E 009°00'1 1.7 030 / 301015.010.8 16.0 15.0
2019-May-13 01:30N 43°47' E 008°59'510.0
2019-May-13 01:00N 43°43' E 008°56'510.1
2019-May-13 00:30N 43°39' E 008°52'5 9.9
2019-May-13 00:00N 43°34' E 008°53'510.0
2019-May-12 23:30N 43°29' E 008°55'4 8.5
2019-May-12 23:00N 43°25' E 008°59'5 9.4
2019-May-12 22:30N 43°26' E 009°05'5 9.6
2019-May-12 22:00N 43°27' E 009°12'5 9.6
2019-May-12 21:30N 43°28' E 009°18'5 9.7
2019-May-12 21:00N 43°29' E 009°25'5 9.7
2019-May-12 20:30N 43°30' E 009°31'5 9.6
2019-May-12 20:00N 43°30' E 009°38'8515.4
2019-May-12 20:00N 43°24' E 009°30'1225.3 010 / 351014.010.8 15.0 16.0
2019-May-12 19:30N 43°31' E 009°44'5 9.6
2019-May-12 19:00N 43°31' E 009°51'2136.7
2019-May-12 19:00N 43°30' E 009°48'714.0 010 / 321014.010.8 15.0 16.0
2019-May-12 18:30N 43°30' E 009°57'5 9.4
2019-May-12 18:00N 43°30' E 010°04'5 9.9
2019-May-12 17:30N 43°31' E 010°10'510.0
2019-May-12 17:00N 43°32' E 010°17'  
Track history (hours):
 
Tides and Currents Weather Stations Pressure Air Temp Water Temp Dewpoint Dewpoint Depression Visibility Wind Speed Wind Dir Waves Ship Positions

Crystal Serenity

Operator: Crystal Cruises

Last reported at 2019-May-22 16:29 UTC. Time now 2019-May-22 16:58 UTC.
Position N 41°22' E 002°11'.

Length 250 m; draft 7.5 m.

Type: Passenger vessel. MMSI: 311536000.

Date/timePositionNaut miles runAvg speedWind from/ knotsBaromVisibWave heightAir tempDewpointWater temp
2019-May-22 16:29N 41°22' E 002°11'0 0.0
2019-May-22 15:56N 41°22' E 002°11'0 0.0
2019-May-22 15:29N 41°22' E 002°11'0 0.0
2019-May-22 14:59N 41°22' E 002°11'0 0.0
2019-May-22 14:29N 41°22' E 002°11'0 0.0
2019-May-22 13:59N 41°22' E 002°11'0 0.0
2019-May-22 13:29N 41°22' E 002°11'0 0.0
2019-May-22 12:56N 41°22' E 002°11'0 0.0
2019-May-22 12:29N 41°22' E 002°11'0 0.0
2019-May-22 11:59N 41°22' E 002°11'0 0.0
2019-May-22 11:29N 41°22' E 002°11'0 0.0
2019-May-22 10:59N 41°22' E 002°11'0 0.0
2019-May-22 10:29N 41°22' E 002°11'0 0.0
2019-May-22 09:56N 41°22' E 002°11'0 0.0
2019-May-22 09:29N 41°22' E 002°11'0 0.0
2019-May-22 08:59N 41°22' E 002°11'0 0.0
2019-May-22 08:29N 41°22' E 002°11'0 0.0
2019-May-22 07:59N 41°22' E 002°11'0 0.0
2019-May-22 07:29N 41°22' E 002°11'0 0.0
2019-May-22 06:59N 41°22' E 002°11'0 0.0
2019-May-22 06:29N 41°22' E 002°11'0 0.0
2019-May-22 05:59N 41°22' E 002°11'0 0.6
2019-May-22 05:30N 41°22' E 002°11'3 6.7
2019-May-22 05:00N 41°18' E 002°11'5 9.5
2019-May-22 04:30N 41°16' E 002°16'713.2
2019-May-22 04:00N 41°17' E 002°25'713.2
2019-May-22 03:30N 41°17' E 002°34'815.1
2019-May-22 02:59N 41°21' E 002°43'715.6
2019-May-22 02:30N 41°25' E 002°52'815.2
2019-May-22 02:00N 41°29' E 002°60'11713.6
2019-May-22 02:00N 41°18' E 003°00'2026.3 270 / 141016.310.8 17.0 17.0
2019-May-22 01:13N 41°36' E 003°13'315.3
2019-May-22 01:00N 41°37' E 003°17'3216.1
2019-May-21 23:00N 42°00' E 003°48'3316.4 280 / 301012.010.8 17.0 18.0
2019-May-21 21:00N 42°24' E 004°18'6020.3 280 / 351012.0 5.4 17.0 18.0
2019-May-21 18:02N 43°11' E 005°08'118.0
2019-May-21 18:00N 43°12' E 005°08'916.5
2019-May-21 17:28N 43°19' E 005°15'4 0.3
2019-May-21 05:44N 43°21' E 005°20'0 1.3
2019-May-21 05:30N 43°21' E 005°20'4 7.5
2019-May-21 04:57N 43°19' E 005°14'713.3
2019-May-21 04:25N 43°13' E 005°10'107253.5
2019-May-21 04:00N 45°00' E 005°18'14124.4 290 / 301015.310.8 15.0 16.0
2019-May-20 22:14N 43°00' E 007°01'614.2
2019-May-20 21:48N 43°06' E 007°04'414.5
2019-May-20 21:30N 43°10' E 007°04'714.6
2019-May-20 21:00N 43°17' E 007°03'6364.8
2019-May-20 21:00N 43°12' E 007°00'1326.4 080 / 101009.010.8 15.0 16.0
2019-May-20 20:30N 43°25' E 007°02'713.4
2019-May-20 20:00N 43°31' E 007°01'0 0.7
2019-May-20 19:28N 43°32' E 007°01'2 4.1
2019-May-20 19:00N 43°30' E 007°00'264.1 020 / 101008.010.8 16.0 17.0
2019-May-20 18:58N 43°32' E 007°01'0 0.1
2019-May-20 18:28N 43°32' E 007°01'0 0.0
2019-May-20 17:58N 43°32' E 007°01'0 0.0
2019-May-20 17:28N 43°32' E 007°01'0 0.0
2019-May-20 16:58N 43°32' E 007°01'0 0.0
2019-May-20 16:28N 43°32' E 007°01'0 0.0
2019-May-20 15:58N 43°32' E 007°01'0 0.0
2019-May-20 15:28N 43°32' E 007°01'0 0.0
2019-May-20 14:58N 43°32' E 007°01'0 0.0
2019-May-20 14:28N 43°32' E 007°01'0 0.0
2019-May-20 13:58N 43°32' E 007°01'0 0.0
2019-May-20 13:28N 43°32' E 007°01'0 0.0
2019-May-20 12:58N 43°32' E 007°01'0 0.0
2019-May-20 12:28N 43°32' E 007°01'0 0.0
2019-May-20 11:58N 43°32' E 007°01'0 0.0
2019-May-20 11:28N 43°32' E 007°01'0 0.0
2019-May-20 10:58N 43°32' E 007°01'0 0.0
2019-May-20 10:28N 43°32' E 007°01'0 0.0
2019-May-20 09:58N 43°32' E 007°01'0 0.0
2019-May-20 09:28N 43°32' E 007°01'0 0.0
2019-May-20 08:58N 43°32' E 007°01'0 0.0
2019-May-20 08:28N 43°32' E 007°01'0 0.0
2019-May-20 07:58N 43°32' E 007°01'0 0.0
2019-May-20 07:28N 43°32' E 007°01'0 0.1
2019-May-20 06:58N 43°32' E 007°01'0 0.0
2019-May-20 06:28N 43°32' E 007°01'0 0.0
2019-May-20 05:58N 43°32' E 007°01'1 2.0
2019-May-20 05:31N 43°31' E 007°01'3 5.2
2019-May-20 05:00N 43°28' E 007°02'510.2
2019-May-20 04:30N 43°24' E 007°06'611.5
2019-May-20 04:00N 43°19' E 007°10'613.0
2019-May-20 03:31N 43°14' E 007°15'714.7
2019-May-20 03:01N 43°08' E 007°21'714.9
2019-May-20 02:31N 43°02' E 007°26'815.0
2019-May-20 02:00N 42°55' E 007°32'2122.5
2019-May-20 02:00N 42°54' E 007°30'715.4 220 / 231012.210.8 14.0 17.0
2019-May-20 01:30N 42°49' E 007°37'914.6
2019-May-20 00:55N 42°42' E 007°44'84 9.4
2019-May-19 16:00N 41°36' E 008°54'18 2.3 270 / 201008.0 16.0 17.0
2019-May-19 08:00N 41°18' E 008°54'6813.6 240 / 301006.010.8 16.0 17.0
2019-May-19 03:00N 41°12' E 010°24'4723.4 280 / 301007.010.8 14.0 17.0
2019-May-19 01:00N 41°00' E 011°24'6015.0 290 / 221008.010.8 15.0 15.0
2019-May-18 21:00N 40°48' E 012°42'60 3.4 240 / 151008.010.8 16.0 17.0
2019-May-18 03:00N 40°36' E 014°00'2612.9 160 / 301011.210.8 17.0 17.0
2019-May-18 01:00N 40°48' E 013°30'5814.5 140 / 301011.2 17.0 17.0
2019-May-17 21:00N 41°18' E 012°24'3316.4 130 / 251008.010.8 15.0 16.0
2019-May-17 19:00N 41°42' E 011°54'29 1.6 150 / 201008.010.8 16.0 18.0
2019-May-17 01:00N 41°54' E 011°18'4915.2 1011.010.8 14.0 16.0
2019-May-16 21:44N 41°38' E 010°15'417.9
2019-May-16 21:30N 41°37' E 010°10'4317.3
2019-May-16 19:00N 41°18' E 009°18'65 4.0 280 / 201012.010.8 15.0 16.0
2019-May-16 03:00N 42°00' E 008°12'3014.9 020 / 161013.010.8 13.0 15.0
2019-May-16 01:00N 42°24' E 007°48'2817.2 010 / 161013.010.8 13.0 15.0
2019-May-15 23:22N 42°45' E 007°24'514.0
2019-May-15 23:00N 42°49' E 007°19'714.0
2019-May-15 22:30N 42°55' E 007°13'714.0
2019-May-15 22:01N 42°60' E 007°07'713.9
2019-May-15 21:30N 43°05' E 007°00'714.0
2019-May-15 21:00N 43°10' E 006°54'4249.3
2019-May-15 21:00N 43°06' E 006°54'1122.0 240 / 101015.010.8 14.0 15.0
2019-May-15 20:30N 43°15' E 006°47'7 1.8
2019-May-15 16:41N 43°17' E 006°38'5 0.5
2019-May-15 07:00N 43°12' E 006°36'519.6 120 / 251014.010.8 11.0 12.0
2019-May-15 06:45N 43°17' E 006°37'0 0.0
2019-May-15 06:30N 43°17' E 006°37'0 0.0
2019-May-15 05:12N 43°17' E 006°37'5 6.6
2019-May-15 04:29N 43°18' E 006°43'612.8
2019-May-15 04:00N 43°15' E 006°51'4280.8
2019-May-15 04:00N 43°12' E 006°48'714.0 090 / 361014.010.8 14.0 16.0
2019-May-15 03:30N 43°12' E 006°57'611.5
2019-May-15 03:00N 43°11' E 007°05'611.2
2019-May-15 02:30N 43°10' E 007°13'5 9.6
2019-May-15 02:00N 43°11' E 007°19'510.5
2019-May-15 01:30N 43°14' E 007°25'510.6
2019-May-15 01:00N 43°18' E 007°30'7495.3
2019-May-15 01:00N 43°12' E 007°24'1325.9 090 / 301014.010.8 14.0 16.0
2019-May-15 00:30N 43°21' E 007°36'510.0
2019-May-15 00:00N 43°25' E 007°40'611.3
2019-May-14 23:30N 43°31' E 007°40'611.8
2019-May-14 23:00N 43°36' E 007°36'019.1
2019-May-14 23:00N 43°36' E 007°36'611.4 110 / 251016.010.8 16.0 17.0
2019-May-14 22:30N 43°41' E 007°33'510.4
2019-May-14 22:00N 43°44' E 007°27'0 0.3
2019-May-14 21:29N 43°44' E 007°26'0 0.0
2019-May-14 20:59N 43°44' E 007°26'0 0.0
2019-May-14 20:29N 43°44' E 007°26'0 0.0
2019-May-14 19:59N 43°44' E 007°26'0 0.0
2019-May-14 19:29N 43°44' E 007°26'0 0.0
2019-May-14 18:59N 43°44' E 007°26'0 0.0
2019-May-14 18:29N 43°44' E 007°26'0 0.0
2019-May-14 17:59N 43°44' E 007°26'0 0.0
2019-May-14 17:29N 43°44' E 007°26'0 0.0
2019-May-14 16:59N 43°44' E 007°26'0 0.0
2019-May-14 16:29N 43°44' E 007°26'0 0.0
2019-May-14 15:59N 43°44' E 007°26'0 0.0
2019-May-14 15:29N 43°44' E 007°26'0 0.0
2019-May-14 14:59N 43°44' E 007°26'0 0.0
2019-May-14 14:29N 43°44' E 007°26'0 0.0
2019-May-14 13:59N 43°44' E 007°26'0 0.1
2019-May-14 13:29N 43°44' E 007°26'0 0.1
2019-May-14 12:59N 43°44' E 007°26'0 0.0
2019-May-14 12:29N 43°44' E 007°26'0 0.0
2019-May-14 11:59N 43°44' E 007°26'0 0.0
2019-May-14 11:29N 43°44' E 007°26'0 0.1
2019-May-14 10:59N 43°44' E 007°26'0 0.0
2019-May-14 10:29N 43°44' E 007°26'0 0.0
2019-May-14 09:59N 43°44' E 007°26'0 0.0
2019-May-14 09:29N 43°44' E 007°26'0 0.1
2019-May-14 08:56N 43°44' E 007°26'0 0.0
2019-May-14 08:29N 43°44' E 007°26'0 0.1
2019-May-14 07:59N 43°44' E 007°26'0 0.0
2019-May-14 07:29N 43°44' E 007°26'0 0.0
2019-May-14 06:59N 43°44' E 007°26'0 0.0
2019-May-14 06:29N 43°44' E 007°26'0 0.0
2019-May-14 05:59N 43°44' E 007°26'0 0.0
2019-May-14 05:29N 43°44' E 007°26'1 1.5
2019-May-14 05:00N 43°44' E 007°27'4 7.8
2019-May-14 04:30N 43°43' E 007°33'713.1
2019-May-14 04:01N 43°42' E 007°41'510.8
2019-May-14 03:30N 43°40' E 007°49'611.4
2019-May-14 03:00N 43°39' E 007°56'6439.0
2019-May-14 03:00N 43°36' E 007°48'1123.5 290 / 91018.010.8 17.0 15.0
2019-May-14 02:30N 43°37' E 008°04'611.2
2019-May-14 02:00N 43°37' E 008°11'611.3
2019-May-14 01:30N 43°38' E 008°19'510.8
2019-May-14 01:01N 43°39' E 008°26'611.3
2019-May-14 00:30N 43°44' E 008°31'611.1
2019-May-14 00:00N 43°48' E 008°36'611.1
2019-May-13 23:30N 43°52' E 008°41'611.0
2019-May-13 23:00N 43°56' E 008°46'510.9
2019-May-13 22:30N 44°00' E 008°51'510.9
2019-May-13 22:00N 44°05' E 008°56'510.9
2019-May-13 21:30N 44°08' E 009°03'510.8
2019-May-13 21:00N 44°11' E 009°09'5345.8
2019-May-13 21:00N 44°06' E 009°06'1020.7 070 / 201019.010.8 18.0 19.0
2019-May-13 20:30N 44°14' E 009°14'4 7.1
2019-May-13 20:00N 44°18' E 009°14'1 1.9
2019-May-13 19:29N 44°19' E 009°14'0 0.0
2019-May-13 18:59N 44°19' E 009°14'0 0.0
2019-May-13 18:29N 44°19' E 009°14'0 0.1
2019-May-13 17:53N 44°19' E 009°14'0 0.1
2019-May-13 17:29N 44°19' E 009°14'0 0.0
2019-May-13 16:56N 44°19' E 009°14'0 0.0
2019-May-13 16:29N 44°19' E 009°14'0 0.0
2019-May-13 15:59N 44°19' E 009°14'0 0.1
2019-May-13 15:29N 44°19' E 009°14'0 0.1
2019-May-13 14:53N 44°19' E 009°14'0 0.2
2019-May-13 14:26N 44°19' E 009°14'0 0.1
2019-May-13 13:56N 44°19' E 009°14'0 0.2
2019-May-13 13:29N 44°19' E 009°14'0 0.0
2019-May-13 12:53N 44°19' E 009°14'0 0.2
2019-May-13 12:23N 44°19' E 009°14'0 0.1
2019-May-13 11:59N 44°19' E 009°14'0 0.0
2019-May-13 11:29N 44°19' E 009°14'0 0.0
2019-May-13 10:59N 44°19' E 009°14'0 0.0
2019-May-13 10:29N 44°19' E 009°14'0 0.0
2019-May-13 09:50N 44°19' E 009°14'0 0.1
2019-May-13 09:26N 44°19' E 009°14'0 0.1
2019-May-13 08:59N 44°19' E 009°14'0 0.0
2019-May-13 08:29N 44°19' E 009°14'0 0.1
2019-May-13 07:53N 44°19' E 009°14'0 0.0
2019-May-13 07:05N 44°19' E 009°14'0 0.1
2019-May-13 06:50N 44°19' E 009°14'0 0.0
2019-May-13 06:26N 44°19' E 009°14'0 0.0
2019-May-13 05:44N 44°19' E 009°14'0 0.1
2019-May-13 05:26N 44°19' E 009°14'3 3.9
2019-May-13 04:40N 44°17' E 009°17'1 9.3
2019-May-13 04:30N 44°15' E 009°17'5 9.7
2019-May-13 04:00N 44°10' E 009°15'510.2
2019-May-13 03:30N 44°06' E 009°13'510.1
2019-May-13 03:00N 44°01' E 009°10'2101.9
2019-May-13 03:00N 44°00' E 009°12'510.8 030 / 271015.010.8 15.0 15.0
2019-May-13 02:30N 43°57' E 009°07'510.9
2019-May-13 02:00N 43°52' E 009°03'4262.8
2019-May-13 02:00N 43°48' E 009°00'1 1.7 030 / 301015.010.8 16.0 15.0
2019-May-13 01:30N 43°47' E 008°59'510.0
2019-May-13 01:00N 43°43' E 008°56'510.1
2019-May-13 00:30N 43°39' E 008°52'5 9.9
2019-May-13 00:00N 43°34' E 008°53'510.0
2019-May-12 23:30N 43°29' E 008°55'4 8.5
2019-May-12 23:00N 43°25' E 008°59'5 9.4
2019-May-12 22:30N 43°26' E 009°05'5 9.6
2019-May-12 22:00N 43°27' E 009°12'5 9.6
2019-May-12 21:30N 43°28' E 009°18'5 9.7
2019-May-12 21:00N 43°29' E 009°25'5 9.7
2019-May-12 20:30N 43°30' E 009°31'5 9.6
2019-May-12 20:00N 43°30' E 009°38'8515.4
2019-May-12 20:00N 43°24' E 009°30'1225.3 010 / 351014.010.8 15.0 16.0
2019-May-12 19:30N 43°31' E 009°44'5 9.6
2019-May-12 19:00N 43°31' E 009°51'2136.7
2019-May-12 19:00N 43°30' E 009°48'714.0 010 / 321014.010.8 15.0 16.0
2019-May-12 18:30N 43°30' E 009°57'5 9.4
2019-May-12 18:00N 43°30' E 010°04'5 9.9
2019-May-12 17:30N 43°31' E 010°10'510.0
2019-May-12 17:00N 43°32' E 010°17'  

Dump ship's entire track history